Time;durP1;ratioP1;P1;durP2;ratioP2;P2;SDS_P1;SDS_P2;PMS_P1;PMS_P2;Temp;Humidity;BMP_temperature;BMP_pressure;BME280_temperature;BME280_humidity;BME280_pressure;Samples;Min_cycle;Max_cycle;Signal;HPM_P1;HPM_P2
2023/11/05 00:00:11;;;;;;;;;;;10.40;87.60;;;;;;5091983;28;19928;-74
2023/11/05 00:02:41;;;;;;;;;;;10.40;87.50;;;;;;5096023;28;19947;-74
2023/11/05 00:05:14;;;;;;;;;;;10.40;87.40;;;;;;5089102;28;19964;-74
2023/11/05 00:08:02;;;;;;;;;;;10.40;87.50;;;;;;5081774;28;22372;-73
2023/11/05 00:10:43;;;;;;;;;;;10.50;87.50;;;;;;5088332;28;20010;-72
2023/11/05 00:13:17;;;;;;;;;;;10.50;87.50;;;;;;5084406;28;19939;-73
2023/11/05 00:15:54;;;;;;;;;;;10.50;87.60;;;;;;5082435;28;19991;-73
2023/11/05 00:18:27;;;;;;;;;;;10.60;87.50;;;;;;5092551;28;19924;-75
2023/11/05 00:21:00;;;;;;;;;;;10.60;87.40;;;;;;5092451;28;19947;-74
2023/11/05 00:23:33;;;;;;;;;;;10.60;87.30;;;;;;5091979;28;19924;-74
2023/11/05 00:26:07;;;;;;;;;;;10.70;87.40;;;;;;5093005;28;19924;-73
2023/11/05 00:28:45;;;;;;;;;;;10.60;87.20;;;;;;5084418;28;19924;-74
2023/11/05 00:31:18;;;;;;;;;;;10.60;87.10;;;;;;5094155;28;19997;-74
2023/11/05 00:33:51;;;;;;;;;;;10.70;87.10;;;;;;5089232;28;19950;-75
2023/11/05 00:36:31;;;;;;;;;;;10.60;87.10;;;;;;5091998;28;19928;-76
2023/11/05 00:39:05;;;;;;;;;;;10.70;87.20;;;;;;5091155;28;21052;-60
2023/11/05 00:41:40;;;;;;;;;;;10.70;86.90;;;;;;5094861;28;19928;-60
2023/11/05 00:44:13;;;;;;;;;;;10.70;87.00;;;;;;5051466;28;19924;-60
2023/11/05 00:46:40;;;;;;;;;;;10.70;86.90;;;;;;5093569;28;19931;-61
2023/11/05 00:49:14;;;;;;;;;;;10.60;86.90;;;;;;5091462;28;19928;-61
2023/11/05 00:51:48;;;;;;;;;;;10.60;86.90;;;;;;5100995;28;19928;-62
2023/11/05 00:54:21;;;;;;;;;;;10.60;87.00;;;;;;5103389;28;20038;-61
2023/11/05 00:56:55;;;;;;;;;;;10.60;87.10;;;;;;5103072;28;19928;-62
2023/11/05 00:59:29;;;;;;;;;;;10.60;87.00;;;;;;5097254;27;20325;-61
2023/11/05 01:02:02;;;;;;;;;;;10.60;87.00;;;;;;5098350;28;19999;-60
2023/11/05 01:04:35;;;;;;;;;;;10.60;87.00;;;;;;5093546;28;19968;-61
2023/11/05 01:07:01;;;;;;;;;;;10.60;86.90;;;;;;5100829;28;19935;-60
2023/11/05 01:09:35;;;;;;;;;;;10.60;87.00;;;;;;5101222;28;20403;-61
2023/11/05 01:12:09;;;;;;;;;;;10.60;86.90;;;;;;5091201;28;20015;-61
2023/11/05 01:14:43;;;;;;;;;;;10.60;86.90;;;;;;5094578;28;19924;-61
2023/11/05 01:17:16;;;;;;;;;;;10.60;86.90;;;;;;5095260;27;20444;-60
2023/11/05 01:19:42;;;;;;;;;;;10.50;86.90;;;;;;5098274;28;19924;-65
2023/11/05 01:22:16;;;;;;;;;;;10.50;87.00;;;;;;5092788;28;19931;-61
2023/11/05 01:24:49;;;;;;;;;;;10.50;86.90;;;;;;5097778;28;20284;-60
2023/11/05 01:27:24;;;;;;;;;;;10.50;87.00;;;;;;5098681;28;19931;-60
2023/11/05 01:29:58;;;;;;;;;;;10.60;86.90;;;;;;5100927;28;20386;-60
2023/11/05 01:32:31;;;;;;;;;;;10.50;86.90;;;;;;5096930;27;20015;-61
2023/11/05 01:35:04;;;;;;;;;;;10.50;87.10;;;;;;5099668;27;19930;-59
2023/11/05 01:37:38;;;;;;;;;;;10.40;87.10;;;;;;5105281;27;19932;-61
2023/11/05 01:40:11;;;;;;;;;;;10.50;87.10;;;;;;5096033;28;19977;-61
2023/11/05 01:42:46;;;;;;;;;;;10.40;87.10;;;;;;5108700;27;19934;-61
2023/11/05 01:45:13;;;;;;;;;;;10.40;87.10;;;;;;5098960;27;20406;-60
2023/11/05 01:47:46;;;;;;;;;;;10.50;87.10;;;;;;5093285;28;20413;-71
2023/11/05 01:50:19;;;;;;;;;;;10.40;87.10;;;;;;5093387;28;19923;-70
2023/11/05 01:52:48;;;;;;;;;;;10.50;87.00;;;;;;5095818;28;19924;-69
2023/11/05 01:55:22;;;;;;;;;;;10.40;87.00;;;;;;5089128;28;20387;-70
2023/11/05 01:57:51;;;;;;;;;;;10.40;87.00;;;;;;5101212;28;19923;-69
2023/11/05 02:00:24;;;;;;;;;;;10.40;86.90;;;;;;5108958;27;19951;-71
2023/11/05 02:02:51;;;;;;;;;;;10.30;87.00;;;;;;5093983;28;19955;-69
2023/11/05 02:05:24;;;;;;;;;;;10.40;87.00;;;;;;5098286;28;19928;-69
2023/11/05 02:08:04;;;;;;;;;;;10.40;87.00;;;;;;5108918;27;19963;-69
2023/11/05 02:10:38;;;;;;;;;;;10.40;86.90;;;;;;5092453;28;20017;-69
2023/11/05 02:13:19;;;;;;;;;;;10.40;86.90;;;;;;5099023;28;19928;-70
2023/11/05 02:15:52;;;;;;;;;;;10.40;86.90;;;;;;5084059;28;19969;-69
2023/11/05 02:18:26;;;;;;;;;;;10.40;86.90;;;;;;5091549;28;20019;-70
2023/11/05 02:20:59;;;;;;;;;;;10.40;86.90;;;;;;5094975;27;19939;-69
2023/11/05 02:23:35;;;;;;;;;;;10.40;86.90;;;;;;5087930;28;19928;-69
2023/11/05 02:26:09;;;;;;;;;;;10.40;86.90;;;;;;5091580;28;19927;-69
2023/11/05 02:28:42;;;;;;;;;;;10.40;87.00;;;;;;5102429;27;19959;-70
2023/11/05 02:31:15;;;;;;;;;;;10.40;87.10;;;;;;5095180;27;19928;-69
2023/11/05 02:33:48;;;;;;;;;;;10.40;87.10;;;;;;5098343;28;19936;-69
2023/11/05 02:36:21;;;;;;;;;;;10.40;87.20;;;;;;5096748;28;19927;-69
2023/11/05 02:38:55;;;;;;;;;;;10.40;87.20;;;;;;5096449;28;19932;-69
2023/11/05 02:41:29;;;;;;;;;;;10.40;87.10;;;;;;5098634;28;19928;-70
2023/11/05 02:44:02;;;;;;;;;;;10.40;87.00;;;;;;5093890;27;19924;-70
2023/11/05 02:46:35;;;;;;;;;;;10.40;87.00;;;;;;5090361;28;19936;-69
2023/11/05 02:49:09;;;;;;;;;;;10.40;87.10;;;;;;5096234;28;20390;-70
2023/11/05 02:51:43;;;;;;;;;;;10.40;87.00;;;;;;5097940;28;19924;-68
2023/11/05 02:54:18;;;;;;;;;;;10.40;87.00;;;;;;5093684;28;19928;-69
2023/11/05 02:56:52;;;;;;;;;;;10.40;87.10;;;;;;5092208;28;19928;-70
2023/11/05 02:59:25;;;;;;;;;;;10.40;87.00;;;;;;5090565;28;19924;-72
2023/11/05 03:01:59;;;;;;;;;;;10.40;86.90;;;;;;5100558;27;19924;-73
2023/11/05 03:04:33;;;;;;;;;;;10.40;86.90;;;;;;5093774;27;21286;-71
2023/11/05 03:07:06;;;;;;;;;;;10.40;86.90;;;;;;5091860;28;20406;-72
2023/11/05 03:09:34;;;;;;;;;;;10.40;86.90;;;;;;5098403;28;19928;-72
2023/11/05 03:12:07;;;;;;;;;;;10.40;87.00;;;;;;5093933;28;20030;-74
2023/11/05 03:14:41;;;;;;;;;;;10.40;87.10;;;;;;5098787;28;20379;-72
2023/11/05 03:17:14;;;;;;;;;;;10.40;87.10;;;;;;5097112;28;19924;-73
2023/11/05 03:19:47;;;;;;;;;;;10.40;87.20;;;;;;5091687;27;19984;-72
2023/11/05 03:22:20;;;;;;;;;;;10.40;87.20;;;;;;5111726;27;19969;-74
2023/11/05 03:24:54;;;;;;;;;;;10.40;87.20;;;;;;5115569;27;19934;-73
2023/11/05 03:27:28;;;;;;;;;;;10.40;87.10;;;;;;5099168;28;19932;-71
2023/11/05 03:30:01;;;;;;;;;;;10.40;87.20;;;;;;5081801;28;19932;-70
2023/11/05 03:32:34;;;;;;;;;;;10.40;87.20;;;;;;5101175;28;19928;-70
2023/11/05 03:35:08;;;;;;;;;;;10.40;87.20;;;;;;5099131;28;19928;-70
2023/11/05 03:37:42;;;;;;;;;;;10.40;87.00;;;;;;5100445;28;20043;-70
2023/11/05 03:40:16;;;;;;;;;;;10.40;86.70;;;;;;5098834;28;19924;-70
2023/11/05 03:42:50;;;;;;;;;;;10.40;86.50;;;;;;5113472;27;19959;-71
2023/11/05 03:45:23;;;;;;;;;;;10.40;86.30;;;;;;5098565;28;19931;-69
2023/11/05 03:47:56;;;;;;;;;;;10.40;86.30;;;;;;5100160;28;19947;-71
2023/11/05 03:50:30;;;;;;;;;;;10.40;86.20;;;;;;5100827;27;19953;-70
2023/11/05 03:53:04;;;;;;;;;;;10.40;86.20;;;;;;5114579;28;19928;-71
2023/11/05 03:55:38;;;;;;;;;;;10.40;86.10;;;;;;5099719;28;19928;-72
2023/11/05 03:58:12;;;;;;;;;;;10.40;86.00;;;;;;5101003;28;19935;-71
2023/11/05 04:00:45;;;;;;;;;;;10.50;85.80;;;;;;5099117;28;19924;-70
2023/11/05 04:03:18;;;;;;;;;;;10.40;85.80;;;;;;5098721;28;20020;-70
2023/11/05 04:05:52;;;;;;;;;;;10.50;85.70;;;;;;5100018;28;20332;-73
2023/11/05 04:08:18;;;;;;;;;;;10.40;85.60;;;;;;5097875;28;19928;-61
2023/11/05 04:10:53;;;;;;;;;;;10.50;85.40;;;;;;5097631;28;19931;-60
2023/11/05 04:13:27;;;;;;;;;;;10.50;85.30;;;;;;5099114;28;19924;-61
2023/11/05 04:16:00;;;;;;;;;;;10.50;85.10;;;;;;5098912;28;19924;-60
2023/11/05 04:18:26;;;;;;;;;;;10.50;84.90;;;;;;5098205;28;20032;-61
2023/11/05 04:21:00;;;;;;;;;;;10.60;84.70;;;;;;5099099;28;20363;-62
2023/11/05 04:23:33;;;;;;;;;;;10.60;84.60;;;;;;5098029;28;20371;-61
2023/11/05 04:26:09;;;;;;;;;;;10.60;84.70;;;;;;5093278;28;20004;-61
2023/11/05 04:28:42;;;;;;;;;;;10.60;84.90;;;;;;5094901;27;19928;-61
2023/11/05 04:31:15;;;;;;;;;;;10.60;85.10;;;;;;5093948;28;19924;-61
2023/11/05 04:33:48;;;;;;;;;;;10.60;85.20;;;;;;5097096;27;19970;-60
2023/11/05 04:36:21;;;;;;;;;;;10.60;85.30;;;;;;5097076;28;20053;-62
2023/11/05 04:38:54;;;;;;;;;;;10.60;85.50;;;;;;5099535;28;20041;-61
2023/11/05 04:41:27;;;;;;;;;;;10.50;85.60;;;;;;5094852;28;19932;-63
2023/11/05 04:44:01;;;;;;;;;;;10.50;85.90;;;;;;5092637;28;20463;-62
2023/11/05 04:46:38;;;;;;;;;;;10.50;86.20;;;;;;5100789;28;19959;-61
2023/11/05 04:49:12;;;;;;;;;;;10.50;86.40;;;;;;5098324;28;19946;-61
2023/11/05 04:51:45;;;;;;;;;;;10.40;86.70;;;;;;5099573;28;19928;-61
2023/11/05 04:54:18;;;;;;;;;;;10.50;86.70;;;;;;5103476;28;19924;-61
2023/11/05 04:56:52;;;;;;;;;;;10.40;86.80;;;;;;5093812;27;20386;-61
2023/11/05 04:59:26;;;;;;;;;;;10.40;87.00;;;;;;5093728;28;20014;-61
2023/11/05 05:01:59;;;;;;;;;;;10.40;86.90;;;;;;5099148;28;19931;-60
2023/11/05 05:04:32;;;;;;;;;;;10.40;87.00;;;;;;5098800;28;19939;-60
2023/11/05 05:07:06;;;;;;;;;;;10.40;87.20;;;;;;5096944;27;19977;-60
2023/11/05 05:09:40;;;;;;;;;;;10.40;87.20;;;;;;5096991;28;19932;-60
2023/11/05 05:12:14;;;;;;;;;;;10.40;87.30;;;;;;5100122;28;19928;-60
2023/11/05 05:14:48;;;;;;;;;;;10.40;87.30;;;;;;5097003;28;20028;-61
2023/11/05 05:17:22;;;;;;;;;;;10.40;87.60;;;;;;5097024;28;19934;-68
2023/11/05 05:19:55;;;;;;;;;;;10.40;87.50;;;;;;5102071;28;19928;-75
2023/11/05 05:22:29;;;;;;;;;;;10.40;87.60;;;;;;5096725;27;19924;-73
2023/11/05 05:25:02;;;;;;;;;;;10.40;87.50;;;;;;5097771;28;19977;-73
2023/11/05 05:27:36;;;;;;;;;;;10.40;87.70;;;;;;5099484;27;19932;-72
2023/11/05 05:30:10;;;;;;;;;;;10.40;88.10;;;;;;5102598;28;20833;-72
2023/11/05 05:32:44;;;;;;;;;;;10.40;88.10;;;;;;5102638;28;20438;-74
2023/11/05 05:35:17;;;;;;;;;;;10.40;88.00;;;;;;5102493;28;20378;-74
2023/11/05 05:37:50;;;;;;;;;;;10.40;88.00;;;;;;5098119;27;19979;-74
2023/11/05 05:40:24;;;;;;;;;;;10.30;88.10;;;;;;5100924;28;20290;-72
2023/11/05 05:42:58;;;;;;;;;;;10.40;88.00;;;;;;5116734;27;20267;-73
2023/11/05 05:45:32;;;;;;;;;;;10.40;88.20;;;;;;5099039;28;20007;-74
2023/11/05 05:48:06;;;;;;;;;;;10.40;88.30;;;;;;5102054;27;20403;-73
2023/11/05 05:50:39;;;;;;;;;;;10.40;88.10;;;;;;5102307;28;20386;-73
2023/11/05 05:53:12;;;;;;;;;;;10.40;88.00;;;;;;5100686;28;20366;-72
2023/11/05 05:55:45;;;;;;;;;;;10.40;88.10;;;;;;5100979;27;19946;-74
2023/11/05 05:58:21;;;;;;;;;;;10.40;87.90;;;;;;5102602;28;19923;-72
2023/11/05 06:00:55;;;;;;;;;;;10.40;88.10;;;;;;5099225;28;19935;-71
2023/11/05 06:03:29;;;;;;;;;;;10.40;88.10;;;;;;5101452;28;19928;-73
2023/11/05 06:06:02;;;;;;;;;;;10.40;88.00;;;;;;5102430;28;20209;-73
2023/11/05 06:08:35;;;;;;;;;;;10.40;88.00;;;;;;5098688;28;19970;-72
2023/11/05 06:11:08;;;;;;;;;;;10.30;88.10;;;;;;5102193;28;20023;-74
2023/11/05 06:13:42;;;;;;;;;;;10.40;88.10;;;;;;5102732;27;19927;-73
2023/11/05 06:16:16;;;;;;;;;;;10.40;88.00;;;;;;5096675;28;19923;-73
2023/11/05 06:18:49;;;;;;;;;;;10.40;88.00;;;;;;5099835;28;20398;-73
2023/11/05 06:21:23;;;;;;;;;;;10.40;87.90;;;;;;5101444;28;19927;-72
2023/11/05 06:23:56;;;;;;;;;;;10.40;87.90;;;;;;5099647;28;20410;-72
2023/11/05 06:26:30;;;;;;;;;;;10.40;87.90;;;;;;5101147;28;19928;-73
2023/11/05 06:29:04;;;;;;;;;;;10.40;88.20;;;;;;5097221;28;20367;-63
2023/11/05 06:31:38;;;;;;;;;;;10.40;88.30;;;;;;5093951;28;19927;-63
2023/11/05 06:34:11;;;;;;;;;;;10.40;88.30;;;;;;5095389;28;19928;-63
2023/11/05 06:36:57;;;;;;;;;;;10.40;88.20;;;;;;5098137;28;19962;-65
2023/11/05 06:39:31;;;;;;;;;;;10.40;88.50;;;;;;5083692;28;19923;-64
2023/11/05 06:42:04;;;;;;;;;;;10.40;88.40;;;;;;5101489;28;19923;-64
2023/11/05 06:44:38;;;;;;;;;;;10.40;88.50;;;;;;5100370;28;20298;-64
2023/11/05 06:47:12;;;;;;;;;;;10.40;88.20;;;;;;5100153;28;20019;-64
2023/11/05 06:49:45;;;;;;;;;;;10.40;88.30;;;;;;5100831;28;19937;-64
2023/11/05 06:52:18;;;;;;;;;;;10.40;88.20;;;;;;5097071;28;19938;-63
2023/11/05 06:54:51;;;;;;;;;;;10.40;88.30;;;;;;5100433;28;20529;-63
2023/11/05 06:57:24;;;;;;;;;;;10.50;88.50;;;;;;5101743;28;19924;-63
2023/11/05 06:59:58;;;;;;;;;;;10.50;88.40;;;;;;5100031;28;20295;-63
2023/11/05 07:02:33;;;;;;;;;;;10.50;88.30;;;;;;5100226;27;19932;-63
2023/11/05 07:05:07;;;;;;;;;;;10.50;88.00;;;;;;5100101;28;19931;-64
2023/11/05 07:07:40;;;;;;;;;;;10.50;88.00;;;;;;5099779;28;19935;-64
2023/11/05 07:10:14;;;;;;;;;;;10.50;87.80;;;;;;5097645;28;19927;-63
2023/11/05 07:12:47;;;;;;;;;;;10.60;87.60;;;;;;5100153;28;19938;-64
2023/11/05 07:15:21;;;;;;;;;;;10.60;87.50;;;;;;5101962;28;19931;-63
2023/11/05 07:17:55;;;;;;;;;;;10.60;87.50;;;;;;5100833;28;19928;-64
2023/11/05 07:20:29;;;;;;;;;;;10.70;87.40;;;;;;5100748;28;19932;-65
2023/11/05 07:23:03;;;;;;;;;;;10.70;87.30;;;;;;5100093;27;20019;-63
2023/11/05 07:25:37;;;;;;;;;;;10.70;87.20;;;;;;5098078;28;19924;-63
2023/11/05 07:28:10;;;;;;;;;;;10.80;87.10;;;;;;5098601;28;19924;-63
2023/11/05 07:30:45;;;;;;;;;;;10.90;87.00;;;;;;5099535;28;19939;-64
2023/11/05 07:33:19;;;;;;;;;;;10.90;86.90;;;;;;5100805;28;20393;-63
2023/11/05 07:35:52;;;;;;;;;;;10.90;86.80;;;;;;5097218;27;19927;-63
2023/11/05 07:38:26;;;;;;;;;;;10.90;86.70;;;;;;5113327;27;19924;-70
2023/11/05 07:40:59;;;;;;;;;;;10.90;86.70;;;;;;5099203;28;19928;-71
2023/11/05 07:43:32;;;;;;;;;;;10.90;86.70;;;;;;5100346;28;19938;-71
2023/11/05 07:46:07;;;;;;;;;;;11.00;86.60;;;;;;5101140;28;19928;-69
2023/11/05 07:48:41;;;;;;;;;;;10.90;86.50;;;;;;5099992;28;20459;-71
2023/11/05 07:51:07;;;;;;;;;;;10.90;86.40;;;;;;5101116;28;19931;-70
2023/11/05 07:53:41;;;;;;;;;;;10.90;86.40;;;;;;5097423;28;19932;-71
2023/11/05 07:56:14;;;;;;;;;;;11.00;86.40;;;;;;5099559;28;19934;-71
2023/11/05 07:58:48;;;;;;;;;;;11.00;86.30;;;;;;5098669;28;19931;-71
2023/11/05 08:01:23;;;;;;;;;;;11.00;86.30;;;;;;5100053;28;19951;-71
2023/11/05 08:03:50;;;;;;;;;;;11.00;86.20;;;;;;5097892;28;19978;-70
2023/11/05 08:06:30;;;;;;;;;;;11.00;86.10;;;;;;5100548;28;20375;-70
2023/11/05 08:09:04;;;;;;;;;;;11.00;86.00;;;;;;5100842;28;19959;-71
2023/11/05 08:11:37;;;;;;;;;;;11.00;86.00;;;;;;5100781;28;20011;-71
2023/11/05 08:14:17;;;;;;;;;;;11.00;86.00;;;;;;5098476;28;19924;-72
2023/11/05 08:16:51;;;;;;;;;;;11.00;86.10;;;;;;5098059;28;19928;-71
2023/11/05 08:19:25;;;;;;;;;;;11.10;86.20;;;;;;5101039;28;19960;-72
2023/11/05 08:21:58;;;;;;;;;;;11.10;86.00;;;;;;5099761;28;19985;-71
2023/11/05 08:24:25;;;;;;;;;;;11.10;85.90;;;;;;5099162;28;19928;-71
2023/11/05 08:26:58;;;;;;;;;;;11.20;85.80;;;;;;5100673;28;19963;-72
2023/11/05 08:29:32;;;;;;;;;;;11.10;85.70;;;;;;5098265;28;19935;-71
2023/11/05 08:32:07;;;;;;;;;;;11.20;85.60;;;;;;5098986;28;19931;-72
2023/11/05 08:34:34;;;;;;;;;;;11.10;85.60;;;;;;5101535;28;19981;-71
2023/11/05 08:37:08;;;;;;;;;;;11.10;85.60;;;;;;5092550;28;19930;-71
2023/11/05 08:39:41;;;;;;;;;;;11.20;85.50;;;;;;5099397;28;19932;-71
2023/11/05 08:42:14;;;;;;;;;;;11.30;85.40;;;;;;5113572;28;20294;-71
2023/11/05 08:44:47;;;;;;;;;;;11.30;85.30;;;;;;5100091;28;19930;-70
2023/11/05 08:47:21;;;;;;;;;;;11.30;85.00;;;;;;5100668;28;19927;-67
2023/11/05 08:49:48;;;;;;;;;;;11.40;84.90;;;;;;5097872;28;19977;-68
2023/11/05 08:52:21;;;;;;;;;;;11.60;84.60;;;;;;5097256;28;20397;-67
2023/11/05 08:54:54;;;;;;;;;;;11.60;84.30;;;;;;5099316;28;20043;-66
2023/11/05 08:57:28;;;;;;;;;;;11.60;84.10;;;;;;5099955;28;19967;-67
2023/11/05 09:00:01;;;;;;;;;;;11.70;84.20;;;;;;5099037;28;20391;-67
2023/11/05 09:02:35;;;;;;;;;;;11.70;84.10;;;;;;5097984;28;20387;-66
2023/11/05 09:05:10;;;;;;;;;;;11.80;83.70;;;;;;5098322;28;19928;-67
2023/11/05 09:07:43;;;;;;;;;;;11.90;83.50;;;;;;5098854;28;20389;-68
2023/11/05 09:10:16;;;;;;;;;;;12.00;83.30;;;;;;5100066;28;20014;-68
2023/11/05 09:12:49;;;;;;;;;;;12.10;83.20;;;;;;5101427;27;19974;-70
2023/11/05 09:15:22;;;;;;;;;;;12.10;82.80;;;;;;5098164;28;20286;-69
2023/11/05 09:17:57;;;;;;;;;;;12.10;82.40;;;;;;5102988;28;19924;-68
2023/11/05 09:20:31;;;;;;;;;;;12.10;82.40;;;;;;5103707;28;19928;-68
2023/11/05 09:23:04;;;;;;;;;;;12.20;82.20;;;;;;5095993;28;19924;-68
2023/11/05 09:25:37;;;;;;;;;;;12.20;82.10;;;;;;5104018;27;19924;-67
2023/11/05 09:28:10;;;;;;;;;;;12.20;82.10;;;;;;5101592;28;19969;-69
2023/11/05 09:30:45;;;;;;;;;;;12.30;81.90;;;;;;5096259;27;19924;-70
2023/11/05 09:33:21;;;;;;;;;;;12.40;81.80;;;;;;5102272;27;19934;-67
2023/11/05 09:35:54;;;;;;;;;;;12.40;81.50;;;;;;5102036;28;19973;-68
2023/11/05 09:38:27;;;;;;;;;;;12.50;81.40;;;;;;5102056;28;19955;-68
2023/11/05 09:41:00;;;;;;;;;;;12.60;81.30;;;;;;5100480;28;19936;-69
2023/11/05 09:43:33;;;;;;;;;;;12.60;81.20;;;;;;5100932;28;19935;-69
2023/11/05 09:46:07;;;;;;;;;;;12.60;81.10;;;;;;5102657;27;19927;-69
2023/11/05 09:48:47;;;;;;;;;;;12.50;81.20;;;;;;5101747;28;19930;-69
2023/11/05 09:51:21;;;;;;;;;;;12.40;81.60;;;;;;5102882;28;20436;-69
2023/11/05 09:53:54;;;;;;;;;;;12.40;81.50;;;;;;5099067;28;20461;-70
2023/11/05 09:56:27;;;;;;;;;;;12.30;81.80;;;;;;5102481;28;20854;-70
2023/11/05 09:59:01;;;;;;;;;;;12.20;82.00;;;;;;5098716;28;19935;-69
2023/11/05 10:01:35;;;;;;;;;;;12.20;82.10;;;;;;5113917;27;20380;-69
2023/11/05 10:04:11;;;;;;;;;;;12.20;82.30;;;;;;5102172;28;20383;-70
2023/11/05 10:06:45;;;;;;;;;;;12.20;82.40;;;;;;5100762;28;19935;-69
2023/11/05 10:09:18;;;;;;;;;;;12.20;82.60;;;;;;5100019;28;19935;-69
2023/11/05 10:11:51;;;;;;;;;;;12.20;82.60;;;;;;5099383;28;19927;-69
2023/11/05 10:14:24;;;;;;;;;;;12.30;82.60;;;;;;5101827;28;19931;-69
2023/11/05 10:16:58;;;;;;;;;;;12.30;82.60;;;;;;5103026;28;19928;-69
2023/11/05 10:19:34;;;;;;;;;;;12.30;82.80;;;;;;5101593;28;19924;-69
2023/11/05 10:22:15;;;;;;;;;;;12.30;83.00;;;;;;5100307;28;20397;-70
2023/11/05 10:24:50;;;;;;;;;;;12.30;83.20;;;;;;5097562;28;19927;-69
2023/11/05 10:27:27;;;;;;;;;;;12.40;83.40;;;;;;5101387;28;20394;-69
2023/11/05 10:30:00;;;;;;;;;;;12.40;83.70;;;;;;5101577;28;19928;-69
2023/11/05 10:32:34;;;;;;;;;;;12.40;83.70;;;;;;5100938;28;19935;-69
2023/11/05 10:35:03;;;;;;;;;;;12.50;83.70;;;;;;5098462;27;20355;-69
2023/11/05 10:37:37;;;;;;;;;;;12.60;84.00;;;;;;5100621;28;20034;-70
2023/11/05 10:40:05;;;;;;;;;;;12.70;83.90;;;;;;5101620;27;19928;-70
2023/11/05 10:42:40;;;;;;;;;;;12.70;84.00;;;;;;5101162;28;19928;-70
2023/11/05 10:45:14;;;;;;;;;;;12.60;84.10;;;;;;5100681;28;19935;-68
2023/11/05 10:47:47;;;;;;;;;;;12.60;84.40;;;;;;5100080;28;19923;-71
2023/11/05 10:50:29;;;;;;;;;;;12.50;84.50;;;;;;5099986;28;19924;-70
2023/11/05 10:53:04;;;;;;;;;;;12.50;84.90;;;;;;5097555;28;19967;-70
2023/11/05 10:55:39;;;;;;;;;;;12.40;85.20;;;;;;5100535;28;19979;-68
2023/11/05 10:58:13;;;;;;;;;;;12.30;85.40;;;;;;5101513;28;20362;-69
2023/11/05 11:00:52;;;;;;;;;;;12.20;85.80;;;;;;5100109;28;19977;-69
2023/11/05 11:03:25;;;;;;;;;;;12.20;85.90;;;;;;5100326;28;19934;-70
2023/11/05 11:06:05;;;;;;;;;;;12.10;86.20;;;;;;5100103;28;19923;-70
2023/11/05 11:08:38;;;;;;;;;;;12.10;86.30;;;;;;5100690;28;19932;-70
2023/11/05 11:11:15;;;;;;;;;;;12.10;86.50;;;;;;5097737;28;19924;-69
2023/11/05 11:13:49;;;;;;;;;;;12.10;86.70;;;;;;5098891;28;19924;-70
2023/11/05 11:16:29;;;;;;;;;;;12.10;86.70;;;;;;5100844;28;19928;-70
2023/11/05 11:19:07;;;;;;;;;;;12.10;86.70;;;;;;5099730;28;19927;-68
2023/11/05 11:21:46;;;;;;;;;;;12.10;86.80;;;;;;5101351;28;20019;-68
2023/11/05 11:24:29;;;;;;;;;;;12.10;87.10;;;;;;5100781;28;19928;-68
2023/11/05 11:27:04;;;;;;;;;;;12.10;87.10;;;;;;5099266;28;20350;-70
2023/11/05 11:29:32;;;;;;;;;;;12.10;87.20;;;;;;5100779;28;19934;-69
2023/11/05 11:32:05;;;;;;;;;;;12.00;87.40;;;;;;5097931;28;20018;-69
2023/11/05 11:34:32;;;;;;;;;;;12.00;87.50;;;;;;5100044;28;19928;-69
2023/11/05 11:37:06;;;;;;;;;;;12.00;87.60;;;;;;5096452;28;19931;-69
2023/11/05 11:39:40;;;;;;;;;;;12.00;87.50;;;;;;5097668;28;19932;-70
2023/11/05 11:42:13;;;;;;;;;;;12.00;87.70;;;;;;5101120;28;19935;-70
2023/11/05 11:44:47;;;;;;;;;;;12.00;87.70;;;;;;5104747;27;19966;-68
2023/11/05 11:47:21;;;;;;;;;;;11.90;87.80;;;;;;5101818;28;19932;-69
2023/11/05 11:49:54;;;;;;;;;;;12.00;88.00;;;;;;5100970;28;20038;-69
2023/11/05 11:52:32;;;;;;;;;;;12.00;88.00;;;;;;5098947;28;19938;-69
2023/11/05 11:55:06;;;;;;;;;;;12.10;87.90;;;;;;5096763;28;19924;-68
2023/11/05 11:57:39;;;;;;;;;;;12.00;87.70;;;;;;5100659;28;19924;-69
2023/11/05 12:00:16;;;;;;;;;;;12.10;87.60;;;;;;5100206;28;19932;-70
2023/11/05 12:02:50;;;;;;;;;;;12.10;87.60;;;;;;5099020;28;19934;-69
2023/11/05 12:05:23;;;;;;;;;;;12.10;87.70;;;;;;5099751;28;19924;-69
2023/11/05 12:07:57;;;;;;;;;;;12.10;87.80;;;;;;5100734;28;19934;-70
2023/11/05 12:10:31;;;;;;;;;;;12.00;87.70;;;;;;5096902;28;19928;-70
2023/11/05 12:13:05;;;;;;;;;;;12.00;87.60;;;;;;5099313;28;19976;-70
2023/11/05 12:15:38;;;;;;;;;;;12.10;87.70;;;;;;5099978;28;19932;-70
2023/11/05 12:18:11;;;;;;;;;;;12.00;87.70;;;;;;5100399;28;19924;-68
2023/11/05 12:20:44;;;;;;;;;;;12.10;87.70;;;;;;5097807;28;19930;-69
2023/11/05 12:23:19;;;;;;;;;;;12.00;87.60;;;;;;5099847;28;19933;-71
2023/11/05 12:25:59;;;;;;;;;;;12.00;87.90;;;;;;5099205;28;19928;-70
2023/11/05 12:28:33;;;;;;;;;;;12.00;88.10;;;;;;5097732;27;19968;-67
2023/11/05 12:31:07;;;;;;;;;;;12.00;88.30;;;;;;5097410;28;19932;-67
2023/11/05 12:33:40;;;;;;;;;;;12.00;88.30;;;;;;5100312;28;19971;-66
2023/11/05 12:36:13;;;;;;;;;;;11.90;88.60;;;;;;5097945;28;20019;-66
2023/11/05 12:38:47;;;;;;;;;;;11.90;88.70;;;;;;5096766;28;19927;-66
2023/11/05 12:41:21;;;;;;;;;;;11.90;88.50;;;;;;5100755;28;19924;-66
2023/11/05 12:43:54;;;;;;;;;;;12.00;88.60;;;;;;5099050;28;19977;-66
2023/11/05 12:46:29;;;;;;;;;;;12.00;88.60;;;;;;5103972;28;20474;-65
2023/11/05 12:49:03;;;;;;;;;;;11.90;88.50;;;;;;5103525;28;19936;-66
2023/11/05 12:51:36;;;;;;;;;;;12.00;88.50;;;;;;5102212;28;19924;-66
2023/11/05 12:54:10;;;;;;;;;;;11.90;88.60;;;;;;5099310;28;20381;-66
2023/11/05 12:56:44;;;;;;;;;;;11.90;88.60;;;;;;5101858;28;20019;-66
2023/11/05 12:59:17;;;;;;;;;;;11.90;88.60;;;;;;5101486;28;19930;-66
2023/11/05 13:01:50;;;;;;;;;;;11.90;88.50;;;;;;5103804;28;20386;-65
2023/11/05 13:04:23;;;;;;;;;;;11.90;88.40;;;;;;5103361;28;20366;-65
2023/11/05 13:06:56;;;;;;;;;;;11.90;88.20;;;;;;5102551;27;20279;-66
2023/11/05 13:09:32;;;;;;;;;;;12.00;88.10;;;;;;5100941;28;19934;-67
2023/11/05 13:12:05;;;;;;;;;;;12.00;88.10;;;;;;5101764;27;19924;-66
2023/11/05 13:14:39;;;;;;;;;;;12.00;88.00;;;;;;5100204;28;19969;-67
2023/11/05 13:17:13;;;;;;;;;;;11.90;88.10;;;;;;5103198;28;19924;-66
2023/11/05 13:19:47;;;;;;;;;;;12.00;88.20;;;;;;5103001;28;19942;-67
2023/11/05 13:22:21;;;;;;;;;;;11.90;88.30;;;;;;5101223;28;19935;-67
2023/11/05 13:24:56;;;;;;;;;;;11.90;88.60;;;;;;5103366;28;19934;-66
2023/11/05 13:27:30;;;;;;;;;;;11.90;88.50;;;;;;5103105;28;20276;-66
2023/11/05 13:30:03;;;;;;;;;;;11.80;88.70;;;;;;5101013;28;20324;-66
2023/11/05 13:32:39;;;;;;;;;;;11.80;88.90;;;;;;5100834;28;20436;-67
2023/11/05 13:35:14;;;;;;;;;;;11.80;89.00;;;;;;5103285;28;19935;-67
2023/11/05 13:37:47;;;;;;;;;;;11.80;89.20;;;;;;5112756;27;20268;-66
2023/11/05 13:40:25;;;;;;;;;;;11.80;89.20;;;;;;5103873;28;19928;-66
2023/11/05 13:42:58;;;;;;;;;;;11.80;89.30;;;;;;5101570;28;19932;-66
2023/11/05 13:45:31;;;;;;;;;;;11.80;89.30;;;;;;5099783;28;19928;-67
2023/11/05 13:48:04;;;;;;;;;;;11.70;89.40;;;;;;5103119;27;19971;-66
2023/11/05 13:50:37;;;;;;;;;;;11.70;89.20;;;;;;5101698;28;19931;-66
2023/11/05 13:53:10;;;;;;;;;;;11.70;89.10;;;;;;5098987;28;20397;-65
2023/11/05 13:55:44;;;;;;;;;;;11.70;88.90;;;;;;5100347;28;20454;-67
2023/11/05 13:58:19;;;;;;;;;;;11.80;89.00;;;;;;5102463;28;19934;-67
2023/11/05 14:00:53;;;;;;;;;;;11.70;89.00;;;;;;5093722;28;19955;-67
2023/11/05 14:03:27;;;;;;;;;;;11.70;89.20;;;;;;5117890;27;20035;-66
2023/11/05 14:06:00;;;;;;;;;;;11.70;89.30;;;;;;5102438;28;19930;-65
2023/11/05 14:08:33;;;;;;;;;;;11.80;89.40;;;;;;5101084;27;20019;-64
2023/11/05 14:11:07;;;;;;;;;;;11.70;89.50;;;;;;5099555;28;19924;-66
2023/11/05 14:13:47;;;;;;;;;;;11.70;89.50;;;;;;5101502;28;19927;-64
2023/11/05 14:16:21;;;;;;;;;;;11.70;89.60;;;;;;5097432;28;19959;-66
2023/11/05 14:18:54;;;;;;;;;;;11.70;89.60;;;;;;5100683;28;20321;-65
2023/11/05 14:21:28;;;;;;;;;;;11.70;89.50;;;;;;5102845;28;20276;-64
2023/11/05 14:24:01;;;;;;;;;;;11.70;89.60;;;;;;5102234;28;19931;-65
2023/11/05 14:26:35;;;;;;;;;;;11.70;89.50;;;;;;5100922;28;19991;-66
2023/11/05 14:29:02;;;;;;;;;;;11.80;89.50;;;;;;5101337;28;19931;-65
2023/11/05 14:31:36;;;;;;;;;;;11.80;89.40;;;;;;5097678;27;19927;-65
2023/11/05 14:34:10;;;;;;;;;;;11.70;89.60;;;;;;5099509;28;19924;-67
2023/11/05 14:36:43;;;;;;;;;;;11.70;89.50;;;;;;5100371;28;19927;-66
2023/11/05 14:39:16;;;;;;;;;;;11.70;89.60;;;;;;5100470;28;19930;-66
2023/11/05 14:41:50;;;;;;;;;;;11.70;89.60;;;;;;5101454;28;19924;-66
2023/11/05 14:44:25;;;;;;;;;;;11.70;89.50;;;;;;5100104;28;19927;-66
2023/11/05 14:46:58;;;;;;;;;;;11.70;89.60;;;;;;5100683;28;19931;-66
2023/11/05 14:49:31;;;;;;;;;;;11.60;89.70;;;;;;5098423;28;19962;-59
2023/11/05 14:52:05;;;;;;;;;;;11.60;89.80;;;;;;5100239;28;19932;-61